Lone Grove, OK (73443)

1:02 PM CDT on August 04, 2015 (GMT -0500)
Carter County Dist 3 | | Change Station
CLOSE
Current Station
Personal Weather Station
Location: Lone Grove, OK
Elevation: 927 ft
Nearby Weather Stations

Elev 927 ft 34.17 °N, 97.28 °W | Updated 7 minutes ago

Rain
Rain
76.0 °F
Feels Like 76 °F
N
7.0
Wind Variable Wind from SE
Gusts 11.0 mph

Today
High -- | Low -- °F
--% Chance of Precip.
Yesterday
High -- | Low -- °F
Precip. -- in
6:42 AM 8:27 PM
Waning Gibbous, 76% visible
Pressure 29.98 in
Visibility 10.0 miles
Clouds Scattered Clouds 2800 ft
Scattered Clouds 3500 ft
Mostly Cloudy 4700 ft
Heat Index 76 °F
Dew Point 73 °F
Humidity 91%
Rainfall 0.20 in
Snow Depth Not available.
UV 6 out of 12
Pollen 5.10 out of 12
Air Quality Not available.
Flu Activity Not available.
METAR K1F0 041730Z AUTO 00000KT 10SM -RA SCT028 SCT035 BKN047 23/22 A2998 RMK AO2

More Conditions Fewer Conditions

Pressure 29.98 in
Visibility 10.0 miles
Clouds Scattered Clouds 2800 ft
Scattered Clouds 3500 ft
Mostly Cloudy 4700 ft
Heat Index 76 °F
Dew Point 73 °F
Humidity 91%
Rainfall 0.20 in
Snow Depth Not available.
UV 6 out of 12
Pollen 5.10 out of 12
Air Quality Not available.
Flu Activity Not available.
METAR K1F0 041730Z AUTO 00000KT 10SM -RA SCT028 SCT035 BKN047 23/22 A2998 RMK AO2

More Conditions Fewer Conditions

10-Day Weather Forecast

×

Almanac

Astronomy

Aug. 04, 2015 Rise Set
Actual Time
Civil Twilight
Nautical Twilight
Astronomical Twilight
Moon
Length of Visible Light
Length of Day
Tomorrow will be .
, % of the Moon is Illuminated

Today's Extremes

State Highs State Lows

Community

WunderPhotos

Upload Photos

1,843,930 photos uploaded!

WunderBlogs® & News

Nearby

Air Quality

  Air Quality AQ Index Pollutant
Not available.

Snow Depth

Station Depth Elevation

Earthquake Activity

City Distance Mag. Time & Date
Minimum magnitude displayed is 2.5.

Coastal Water Temperatures

Place Temperature

Stations

Nearby Weather Stations

Station Location Temp. Windchill Dew Point Humidity Wind Precip. Elev Updated Type